Terminal Aerodrome Forecast
Issued by NWS

Current Version | Previous Version | Text Only | Print | Product List | Glossary On
Versions: 1 2 3 4 5 6 7 8 9 10 11 12 13 14 15 16 17 18 19 20 21 22 23 24 25 26 27 28 29 30 31 32 33 34 35 36 37 38 39 40 41
000
FTUS41 KGYX 012056 AAB
TAFMHT
TAF AMD
KMHT 012056Z 0121/0218 27011KT P6SM FEW070 FEW090
     FM020000 VRB03KT P6SM SCT060
     FM021200 28004KT P6SM SKC=

USA.gov is the U.S. government's official web portal to all federal, state and local government web resources and services.